sensor_id;sensor_type;location;lat;lon;timestamp;temperature;humidity
43963;DHT22;29622;45.534;9.242;2023-05-20T00:01:02;17.90;59.70
43963;DHT22;29622;45.534;9.242;2023-05-20T00:06:03;17.80;59.70
43963;DHT22;29622;45.534;9.242;2023-05-20T00:11:05;17.80;59.70
43963;DHT22;29622;45.534;9.242;2023-05-20T00:16:06;17.70;59.80
43963;DHT22;29622;45.534;9.242;2023-05-20T00:21:07;17.70;59.90
43963;DHT22;29622;45.534;9.242;2023-05-20T00:26:08;17.60;60.00
43963;DHT22;29622;45.534;9.242;2023-05-20T00:31:09;17.60;59.90
43963;DHT22;29622;45.534;9.242;2023-05-20T00:36:10;17.60;59.90
43963;DHT22;29622;45.534;9.242;2023-05-20T00:41:11;17.60;60.00
43963;DHT22;29622;45.534;9.242;2023-05-20T00:46:11;17.60;60.00
43963;DHT22;29622;45.534;9.242;2023-05-20T00:51:13;17.60;60.10
43963;DHT22;29622;45.534;9.242;2023-05-20T00:56:14;17.70;60.30
43963;DHT22;29622;45.534;9.242;2023-05-20T01:01:14;17.70;59.90
43963;DHT22;29622;45.534;9.242;2023-05-20T01:06:15;17.70;59.80
43963;DHT22;29622;45.534;9.242;2023-05-20T01:11:30;17.60;59.90
43963;DHT22;29622;45.534;9.242;2023-05-20T01:16:34;17.60;60.20
43963;DHT22;29622;45.534;9.242;2023-05-20T01:21:36;17.50;60.10
43963;DHT22;29622;45.534;9.242;2023-05-20T01:26:37;17.50;60.20
43963;DHT22;29622;45.534;9.242;2023-05-20T01:31:38;17.50;60.20
43963;DHT22;29622;45.534;9.242;2023-05-20T01:36:39;17.40;60.20
43963;DHT22;29622;45.534;9.242;2023-05-20T01:41:40;17.40;60.60
43963;DHT22;29622;45.534;9.242;2023-05-20T01:46:48;17.40;60.60
43963;DHT22;29622;45.534;9.242;2023-05-20T01:51:49;17.40;60.50
43963;DHT22;29622;45.534;9.242;2023-05-20T01:56:49;17.30;60.50
43963;DHT22;29622;45.534;9.242;2023-05-20T02:01:50;17.30;60.50
43963;DHT22;29622;45.534;9.242;2023-05-20T02:06:52;17.30;60.70
43963;DHT22;29622;45.534;9.242;2023-05-20T02:11:54;17.30;60.90
43963;DHT22;29622;45.534;9.242;2023-05-20T02:16:54;17.30;61.10
43963;DHT22;29622;45.534;9.242;2023-05-20T02:21:56;17.40;60.90
43963;DHT22;29622;45.534;9.242;2023-05-20T02:26:57;17.40;60.60
43963;DHT22;29622;45.534;9.242;2023-05-20T02:32:01;17.30;60.50
43963;DHT22;29622;45.534;9.242;2023-05-20T02:37:02;17.30;60.60
43963;DHT22;29622;45.534;9.242;2023-05-20T02:42:03;17.30;60.60
43963;DHT22;29622;45.534;9.242;2023-05-20T02:47:04;17.30;60.70
43963;DHT22;29622;45.534;9.242;2023-05-20T02:52:05;17.20;60.70
43963;DHT22;29622;45.534;9.242;2023-05-20T02:57:09;17.20;60.60
43963;DHT22;29622;45.534;9.242;2023-05-20T03:02:10;17.20;60.70
43963;DHT22;29622;45.534;9.242;2023-05-20T03:07:11;17.20;60.60
43963;DHT22;29622;45.534;9.242;2023-05-20T03:12:13;17.20;60.70
43963;DHT22;29622;45.534;9.242;2023-05-20T03:17:13;17.30;60.90
43963;DHT22;29622;45.534;9.242;2023-05-20T03:22:14;17.40;60.30
43963;DHT22;29622;45.534;9.242;2023-05-20T03:27:16;17.40;60.00
43963;DHT22;29622;45.534;9.242;2023-05-20T03:32:17;17.30;60.00
43963;DHT22;29622;45.534;9.242;2023-05-20T03:37:18;17.30;60.00
43963;DHT22;29622;45.534;9.242;2023-05-20T03:42:18;17.20;60.00
43963;DHT22;29622;45.534;9.242;2023-05-20T03:47:19;17.20;59.90
43963;DHT22;29622;45.534;9.242;2023-05-20T03:52:20;17.20;60.00
43963;DHT22;29622;45.534;9.242;2023-05-20T03:57:21;17.20;59.90
43963;DHT22;29622;45.534;9.242;2023-05-20T04:02:22;17.20;59.80
43963;DHT22;29622;45.534;9.242;2023-05-20T04:07:23;17.10;59.70
43963;DHT22;29622;45.534;9.242;2023-05-20T04:12:24;17.10;59.90
43963;DHT22;29622;45.534;9.242;2023-05-20T04:17:30;17.10;60.10
43963;DHT22;29622;45.534;9.242;2023-05-20T04:22:31;17.10;59.90
43963;DHT22;29622;45.534;9.242;2023-05-20T04:27:31;17.10;60.00
43963;DHT22;29622;45.534;9.242;2023-05-20T04:32:36;17.20;60.00
43963;DHT22;29622;45.534;9.242;2023-05-20T04:37:38;17.10;59.90
43963;DHT22;29622;45.534;9.242;2023-05-20T04:42:41;17.10;59.90
43963;DHT22;29622;45.534;9.242;2023-05-20T04:47:44;17.10;60.10
43963;DHT22;29622;45.534;9.242;2023-05-20T04:52:46;17.10;60.10
43963;DHT22;29622;45.534;9.242;2023-05-20T04:57:48;17.10;60.40
43963;DHT22;29622;45.534;9.242;2023-05-20T05:02:49;17.20;60.20
43963;DHT22;29622;45.534;9.242;2023-05-20T05:07:51;17.20;60.00
43963;DHT22;29622;45.534;9.242;2023-05-20T05:12:51;17.20;60.20
43963;DHT22;29622;45.534;9.242;2023-05-20T05:17:53;17.20;60.40
43963;DHT22;29622;45.534;9.242;2023-05-20T05:22:54;17.20;60.50
43963;DHT22;29622;45.534;9.242;2023-05-20T05:27:54;17.20;60.50
43963;DHT22;29622;45.534;9.242;2023-05-20T05:32:56;17.20;60.30
43963;DHT22;29622;45.534;9.242;2023-05-20T05:37:57;17.20;60.90
43963;DHT22;29622;45.534;9.242;2023-05-20T05:42:58;17.30;60.40
43963;DHT22;29622;45.534;9.242;2023-05-20T05:47:59;17.30;60.30
43963;DHT22;29622;45.534;9.242;2023-05-20T05:53:00;17.30;60.10
43963;DHT22;29622;45.534;9.242;2023-05-20T05:58:01;17.30;60.40
43963;DHT22;29622;45.534;9.242;2023-05-20T06:03:03;17.50;60.70
43963;DHT22;29622;45.534;9.242;2023-05-20T06:08:10;17.60;60.20
43963;DHT22;29622;45.534;9.242;2023-05-20T06:13:10;17.60;59.90
43963;DHT22;29622;45.534;9.242;2023-05-20T06:18:12;17.60;59.80
43963;DHT22;29622;45.534;9.242;2023-05-20T06:23:13;17.70;59.90
43963;DHT22;29622;45.534;9.242;2023-05-20T06:28:28;17.70;59.90
43963;DHT22;29622;45.534;9.242;2023-05-20T06:33:29;17.90;59.80
43963;DHT22;29622;45.534;9.242;2023-05-20T06:38:33;18.00;59.50
43963;DHT22;29622;45.534;9.242;2023-05-20T06:43:34;17.90;59.50
43963;DHT22;29622;45.534;9.242;2023-05-20T06:48:53;18.00;59.60
43963;DHT22;29622;45.534;9.242;2023-05-20T06:53:54;18.10;59.40
43963;DHT22;29622;45.534;9.242;2023-05-20T06:58:55;18.00;59.20
43963;DHT22;29622;45.534;9.242;2023-05-20T07:03:56;18.00;59.30
43963;DHT22;29622;45.534;9.242;2023-05-20T07:08:58;18.10;59.30
43963;DHT22;29622;45.534;9.242;2023-05-20T07:14:01;18.20;59.30
43963;DHT22;29622;45.534;9.242;2023-05-20T07:19:04;18.30;59.10
43963;DHT22;29622;45.534;9.242;2023-05-20T07:24:06;18.30;58.90
43963;DHT22;29622;45.534;9.242;2023-05-20T07:29:07;18.30;59.00
43963;DHT22;29622;45.534;9.242;2023-05-20T07:34:10;18.30;59.30
43963;DHT22;29622;45.534;9.242;2023-05-20T07:39:10;18.40;59.00
43963;DHT22;29622;45.534;9.242;2023-05-20T07:44:13;18.50;58.80
43963;DHT22;29622;45.534;9.242;2023-05-20T07:49:17;18.50;58.60
43963;DHT22;29622;45.534;9.242;2023-05-20T07:54:19;18.50;58.60
43963;DHT22;29622;45.534;9.242;2023-05-20T07:59:23;18.50;58.60
43963;DHT22;29622;45.534;9.242;2023-05-20T08:04:24;18.40;58.80
43963;DHT22;29622;45.534;9.242;2023-05-20T08:09:27;18.50;58.90
43963;DHT22;29622;45.534;9.242;2023-05-20T08:14:29;18.60;58.60
43963;DHT22;29622;45.534;9.242;2023-05-20T08:19:31;18.70;58.70
43963;DHT22;29622;45.534;9.242;2023-05-20T08:24:32;18.80;58.70
43963;DHT22;29622;45.534;9.242;2023-05-20T08:29:32;18.90;58.30
43963;DHT22;29622;45.534;9.242;2023-05-20T08:34:34;18.90;58.40
43963;DHT22;29622;45.534;9.242;2023-05-20T08:39:34;18.90;58.40
43963;DHT22;29622;45.534;9.242;2023-05-20T08:44:36;19.10;58.50
43963;DHT22;29622;45.534;9.242;2023-05-20T08:49:37;19.30;58.30
43963;DHT22;29622;45.534;9.242;2023-05-20T08:54:46;19.30;58.10
43963;DHT22;29622;45.534;9.242;2023-05-20T08:59:47;19.20;58.10
43963;DHT22;29622;45.534;9.242;2023-05-20T09:04:48;19.10;58.30
43963;DHT22;29622;45.534;9.242;2023-05-20T09:09:49;19.00;58.40
43963;DHT22;29622;45.534;9.242;2023-05-20T09:14:49;19.00;58.60
43963;DHT22;29622;45.534;9.242;2023-05-20T09:19:51;19.00;58.70
43963;DHT22;29622;45.534;9.242;2023-05-20T09:24:52;19.00;58.70
43963;DHT22;29622;45.534;9.242;2023-05-20T09:29:53;18.90;58.60
43963;DHT22;29622;45.534;9.242;2023-05-20T09:34:53;19.00;58.80
43963;DHT22;29622;45.534;9.242;2023-05-20T09:39:56;19.00;58.80
43963;DHT22;29622;45.534;9.242;2023-05-20T09:45:01;19.10;58.80
43963;DHT22;29622;45.534;9.242;2023-05-20T09:50:05;19.20;58.80
43963;DHT22;29622;45.534;9.242;2023-05-20T09:55:08;19.20;58.80
43963;DHT22;29622;45.534;9.242;2023-05-20T10:00:10;19.20;58.80
43963;DHT22;29622;45.534;9.242;2023-05-20T10:05:28;19.30;59.00
43963;DHT22;29622;45.534;9.242;2023-05-20T10:21:42;19.60;58.90
43963;DHT22;29622;45.534;9.242;2023-05-20T10:26:42;19.70;58.60
43963;DHT22;29622;45.534;9.242;2023-05-20T10:31:47;19.70;58.40
43963;DHT22;29622;45.534;9.242;2023-05-20T10:42:08;19.60;58.30
43963;DHT22;29622;45.534;9.242;2023-05-20T10:47:09;19.60;58.40
43963;DHT22;29622;45.534;9.242;2023-05-20T10:52:10;19.60;58.20
43963;DHT22;29622;45.534;9.242;2023-05-20T10:57:10;19.60;57.90
43963;DHT22;29622;45.534;9.242;2023-05-20T11:02:12;19.50;57.90
43963;DHT22;29622;45.534;9.242;2023-05-20T11:07:27;19.40;58.00
43963;DHT22;29622;45.534;9.242;2023-05-20T11:12:28;19.30;58.20
43963;DHT22;29622;45.534;9.242;2023-05-20T11:17:29;19.30;58.30
43963;DHT22;29622;45.534;9.242;2023-05-20T11:22:29;19.40;58.20
43963;DHT22;29622;45.534;9.242;2023-05-20T11:27:30;19.40;58.00
43963;DHT22;29622;45.534;9.242;2023-05-20T11:32:31;19.60;57.80
43963;DHT22;29622;45.534;9.242;2023-05-20T11:37:31;19.60;57.30
43963;DHT22;29622;45.534;9.242;2023-05-20T11:42:32;19.40;57.20
43963;DHT22;29622;45.534;9.242;2023-05-20T11:47:33;19.20;57.30
43963;DHT22;29622;45.534;9.242;2023-05-20T11:52:33;19.10;57.40
43963;DHT22;29622;45.534;9.242;2023-05-20T11:57:34;19.00;57.50
43963;DHT22;29622;45.534;9.242;2023-05-20T12:02:37;19.00;57.60
43963;DHT22;29622;45.534;9.242;2023-05-20T12:07:37;18.90;57.50
43963;DHT22;29622;45.534;9.242;2023-05-20T12:12:38;18.80;57.50
43963;DHT22;29622;45.534;9.242;2023-05-20T12:17:47;18.70;57.70
43963;DHT22;29622;45.534;9.242;2023-05-20T12:22:48;18.70;57.70
43963;DHT22;29622;45.534;9.242;2023-05-20T12:27:51;18.70;58.30
43963;DHT22;29622;45.534;9.242;2023-05-20T12:32:51;18.70;58.00
43963;DHT22;29622;45.534;9.242;2023-05-20T12:37:52;18.80;58.10
43963;DHT22;29622;45.534;9.242;2023-05-20T12:42:53;18.90;58.10
43963;DHT22;29622;45.534;9.242;2023-05-20T12:47:55;18.90;57.90
43963;DHT22;29622;45.534;9.242;2023-05-20T12:52:56;18.80;58.00
43963;DHT22;29622;45.534;9.242;2023-05-20T12:57:56;18.90;58.20
43963;DHT22;29622;45.534;9.242;2023-05-20T13:02:57;19.00;58.50
43963;DHT22;29622;45.534;9.242;2023-05-20T13:07:57;19.20;58.20
43963;DHT22;29622;45.534;9.242;2023-05-20T13:12:58;19.20;58.00
43963;DHT22;29622;45.534;9.242;2023-05-20T13:17:59;19.10;58.00
43963;DHT22;29622;45.534;9.242;2023-05-20T13:23:00;19.10;57.80
43963;DHT22;29622;45.534;9.242;2023-05-20T13:28:02;19.00;57.60
43963;DHT22;29622;45.534;9.242;2023-05-20T13:33:03;18.80;57.60
43963;DHT22;29622;45.534;9.242;2023-05-20T13:38:03;18.80;57.60
43963;DHT22;29622;45.534;9.242;2023-05-20T13:43:04;18.80;57.70
43963;DHT22;29622;45.534;9.242;2023-05-20T13:48:04;18.80;57.60
43963;DHT22;29622;45.534;9.242;2023-05-20T13:53:05;19.00;57.90
43963;DHT22;29622;45.534;9.242;2023-05-20T13:58:06;19.10;57.80
43963;DHT22;29622;45.534;9.242;2023-05-20T14:03:10;19.10;57.70
43963;DHT22;29622;45.534;9.242;2023-05-20T14:08:11;19.00;57.50
43963;DHT22;29622;45.534;9.242;2023-05-20T14:13:12;18.90;57.50
43963;DHT22;29622;45.534;9.242;2023-05-20T14:18:13;18.70;57.60
43963;DHT22;29622;45.534;9.242;2023-05-20T14:23:13;18.70;58.00
43963;DHT22;29622;45.534;9.242;2023-05-20T14:28:14;18.80;58.00
43963;DHT22;29622;45.534;9.242;2023-05-20T14:33:15;18.70;58.10
43963;DHT22;29622;45.534;9.242;2023-05-20T14:38:15;18.70;58.30
43963;DHT22;29622;45.534;9.242;2023-05-20T14:43:17;18.70;58.60
43963;DHT22;29622;45.534;9.242;2023-05-20T14:48:18;18.80;58.70
43963;DHT22;29622;45.534;9.242;2023-05-20T14:53:19;18.90;58.70
43963;DHT22;29622;45.534;9.242;2023-05-20T14:58:19;19.00;58.80
43963;DHT22;29622;45.534;9.242;2023-05-20T15:03:20;19.00;58.90
43963;DHT22;29622;45.534;9.242;2023-05-20T15:08:23;19.10;59.00
43963;DHT22;29622;45.534;9.242;2023-05-20T15:13:24;19.10;58.80
43963;DHT22;29622;45.534;9.242;2023-05-20T15:18:24;19.10;58.80
43963;DHT22;29622;45.534;9.242;2023-05-20T15:23:25;19.00;58.90
43963;DHT22;29622;45.534;9.242;2023-05-20T15:28:26;19.00;59.00
43963;DHT22;29622;45.534;9.242;2023-05-20T15:33:26;19.10;59.50
43963;DHT22;29622;45.534;9.242;2023-05-20T15:38:27;19.50;58.90
43963;DHT22;29622;45.534;9.242;2023-05-20T15:43:27;19.50;58.50
43963;DHT22;29622;45.534;9.242;2023-05-20T15:48:28;19.30;58.50
43963;DHT22;29622;45.534;9.242;2023-05-20T15:53:29;19.20;58.70
43963;DHT22;29622;45.534;9.242;2023-05-20T15:58:29;19.00;58.80
43963;DHT22;29622;45.534;9.242;2023-05-20T16:03:30;18.90;59.10
43963;DHT22;29622;45.534;9.242;2023-05-20T16:08:31;19.00;59.30
43963;DHT22;29622;45.534;9.242;2023-05-20T16:13:33;19.00;59.40
43963;DHT22;29622;45.534;9.242;2023-05-20T16:18:34;19.00;59.50
43963;DHT22;29622;45.534;9.242;2023-05-20T16:23:34;19.00;59.40
43963;DHT22;29622;45.534;9.242;2023-05-20T16:28:35;19.00;59.60
43963;DHT22;29622;45.534;9.242;2023-05-20T16:33:36;18.90;59.70
43963;DHT22;29622;45.534;9.242;2023-05-20T16:38:37;19.00;59.70
43963;DHT22;29622;45.534;9.242;2023-05-20T16:43:37;19.00;59.60
43963;DHT22;29622;45.534;9.242;2023-05-20T16:48:38;19.00;59.70
43963;DHT22;29622;45.534;9.242;2023-05-20T16:53:38;19.10;59.80
43963;DHT22;29622;45.534;9.242;2023-05-20T16:58:39;19.10;59.60
43963;DHT22;29622;45.534;9.242;2023-05-20T17:03:40;18.90;59.50
43963;DHT22;29622;45.534;9.242;2023-05-20T17:08:40;18.70;59.70
43963;DHT22;29622;45.534;9.242;2023-05-20T17:13:41;18.50;59.90
43963;DHT22;29622;45.534;9.242;2023-05-20T17:18:42;18.40;60.40
43963;DHT22;29622;45.534;9.242;2023-05-20T17:23:42;18.30;60.70
43963;DHT22;29622;45.534;9.242;2023-05-20T17:28:43;18.30;61.00
43963;DHT22;29622;45.534;9.242;2023-05-20T17:33:44;18.30;61.40
43963;DHT22;29622;45.534;9.242;2023-05-20T17:38:44;18.30;61.50
43963;DHT22;29622;45.534;9.242;2023-05-20T17:43:45;18.30;61.90
43963;DHT22;29622;45.534;9.242;2023-05-20T17:48:46;18.30;61.90
43963;DHT22;29622;45.534;9.242;2023-05-20T17:53:46;18.30;62.00
43963;DHT22;29622;45.534;9.242;2023-05-20T17:58:47;18.30;62.20
43963;DHT22;29622;45.534;9.242;2023-05-20T18:03:48;18.30;62.20
43963;DHT22;29622;45.534;9.242;2023-05-20T18:08:48;18.30;62.40
43963;DHT22;29622;45.534;9.242;2023-05-20T18:13:49;18.30;62.50
43963;DHT22;29622;45.534;9.242;2023-05-20T18:18:49;18.30;62.60
43963;DHT22;29622;45.534;9.242;2023-05-20T18:23:50;18.30;62.70
43963;DHT22;29622;45.534;9.242;2023-05-20T18:28:51;18.30;62.70
43963;DHT22;29622;45.534;9.242;2023-05-20T18:33:51;18.30;63.00
43963;DHT22;29622;45.534;9.242;2023-05-20T18:38:52;18.30;63.30
43963;DHT22;29622;45.534;9.242;2023-05-20T18:43:53;18.40;63.60
43963;DHT22;29622;45.534;9.242;2023-05-20T18:48:53;18.40;63.60
43963;DHT22;29622;45.534;9.242;2023-05-20T18:53:54;18.40;63.60
43963;DHT22;29622;45.534;9.242;2023-05-20T18:58:55;18.50;63.70
43963;DHT22;29622;45.534;9.242;2023-05-20T19:03:55;18.40;63.70
43963;DHT22;29622;45.534;9.242;2023-05-20T19:08:56;18.50;63.80
43963;DHT22;29622;45.534;9.242;2023-05-20T19:13:57;18.50;64.00
43963;DHT22;29622;45.534;9.242;2023-05-20T19:18:58;18.50;64.10
43963;DHT22;29622;45.534;9.242;2023-05-20T19:23:58;18.60;64.00
43963;DHT22;29622;45.534;9.242;2023-05-20T19:28:59;18.60;63.90
43963;DHT22;29622;45.534;9.242;2023-05-20T19:34:00;18.60;63.70
43963;DHT22;29622;45.534;9.242;2023-05-20T19:39:05;18.50;63.60
43963;DHT22;29622;45.534;9.242;2023-05-20T19:44:08;18.40;63.80
43963;DHT22;29622;45.534;9.242;2023-05-20T19:49:09;18.40;64.00
43963;DHT22;29622;45.534;9.242;2023-05-20T19:54:09;18.40;64.00
43963;DHT22;29622;45.534;9.242;2023-05-20T19:59:10;18.40;64.00
43963;DHT22;29622;45.534;9.242;2023-05-20T20:04:11;18.30;63.80
43963;DHT22;29622;45.534;9.242;2023-05-20T20:09:12;18.30;63.90
43963;DHT22;29622;45.534;9.242;2023-05-20T20:14:13;18.20;64.00
43963;DHT22;29622;45.534;9.242;2023-05-20T20:19:15;18.10;64.10
43963;DHT22;29622;45.534;9.242;2023-05-20T20:24:18;18.10;64.10
43963;DHT22;29622;45.534;9.242;2023-05-20T20:29:20;18.30;65.30
43963;DHT22;29622;45.534;9.242;2023-05-20T20:34:22;18.70;64.40
43963;DHT22;29622;45.534;9.242;2023-05-20T20:39:22;18.70;63.90
43963;DHT22;29622;45.534;9.242;2023-05-20T20:44:24;18.60;63.80
43963;DHT22;29622;45.534;9.242;2023-05-20T20:49:25;18.50;63.90
43963;DHT22;29622;45.534;9.242;2023-05-20T20:54:27;18.60;64.20
43963;DHT22;29622;45.534;9.242;2023-05-20T20:59:27;18.70;64.20
43963;DHT22;29622;45.534;9.242;2023-05-20T21:04:29;18.60;63.80
43963;DHT22;29622;45.534;9.242;2023-05-20T21:09:30;18.60;63.80
43963;DHT22;29622;45.534;9.242;2023-05-20T21:14:31;18.40;63.70
43963;DHT22;29622;45.534;9.242;2023-05-20T21:19:31;18.30;63.70
43963;DHT22;29622;45.534;9.242;2023-05-20T21:24:32;18.20;64.00
43963;DHT22;29622;45.534;9.242;2023-05-20T21:29:36;18.20;64.20
43963;DHT22;29622;45.534;9.242;2023-05-20T21:34:36;18.20;64.30
43963;DHT22;29622;45.534;9.242;2023-05-20T21:39:37;18.20;64.00
43963;DHT22;29622;45.534;9.242;2023-05-20T21:44:38;18.20;64.00
43963;DHT22;29622;45.534;9.242;2023-05-20T21:49:38;18.10;63.90
43963;DHT22;29622;45.534;9.242;2023-05-20T21:54:39;18.10;63.80
43963;DHT22;29622;45.534;9.242;2023-05-20T21:59:40;18.00;63.80
43963;DHT22;29622;45.534;9.242;2023-05-20T22:04:41;18.00;63.90
43963;DHT22;29622;45.534;9.242;2023-05-20T22:09:42;18.00;64.00
43963;DHT22;29622;45.534;9.242;2023-05-20T22:14:43;18.10;63.90
43963;DHT22;29622;45.534;9.242;2023-05-20T22:19:44;18.10;63.70
43963;DHT22;29622;45.534;9.242;2023-05-20T22:24:44;18.10;63.50
43963;DHT22;29622;45.534;9.242;2023-05-20T22:29:45;18.10;63.50
43963;DHT22;29622;45.534;9.242;2023-05-20T22:34:46;18.00;64.10
43963;DHT22;29622;45.534;9.242;2023-05-20T22:39:47;18.00;63.30
43963;DHT22;29622;45.534;9.242;2023-05-20T22:44:47;17.90;63.40
43963;DHT22;29622;45.534;9.242;2023-05-20T22:49:48;17.90;63.40
43963;DHT22;29622;45.534;9.242;2023-05-20T22:54:49;18.00;63.60
43963;DHT22;29622;45.534;9.242;2023-05-20T22:59:51;18.10;63.50
43963;DHT22;29622;45.534;9.242;2023-05-20T23:04:51;18.10;63.40
43963;DHT22;29622;45.534;9.242;2023-05-20T23:09:52;18.10;63.30
43963;DHT22;29622;45.534;9.242;2023-05-20T23:14:52;18.00;63.00
43963;DHT22;29622;45.534;9.242;2023-05-20T23:19:53;17.90;63.00
43963;DHT22;29622;45.534;9.242;2023-05-20T23:24:54;17.90;63.30
43963;DHT22;29622;45.534;9.242;2023-05-20T23:29:54;17.90;63.20
43963;DHT22;29622;45.534;9.242;2023-05-20T23:34:55;17.90;63.20
43963;DHT22;29622;45.534;9.242;2023-05-20T23:39:56;17.90;63.20
43963;DHT22;29622;45.534;9.242;2023-05-20T23:44:57;17.90;63.00
43963;DHT22;29622;45.534;9.242;2023-05-20T23:49:58;17.90;63.10
43963;DHT22;29622;45.534;9.242;2023-05-20T23:54:59;18.00;63.00
43963;DHT22;29622;45.534;9.242;2023-05-20T23:59:59;18.00;62.70
